createdAt,value
2019-06-20T00:00:20.890Z,1000.84
2019-06-20T00:01:20.488Z,1000.72
2019-06-20T00:02:20.085Z,1000.76
2019-06-20T00:03:19.605Z,1000.78
2019-06-20T00:04:19.215Z,1000.79
2019-06-20T00:05:18.775Z,1000.80
2019-06-20T00:06:18.369Z,1000.78
2019-06-20T00:07:18.933Z,1000.75
2019-06-20T00:08:18.126Z,1000.73
2019-06-20T00:09:17.720Z,1000.72
2019-06-20T00:10:17.342Z,1000.66
2019-06-20T00:11:16.971Z,1000.70
2019-06-20T00:12:16.563Z,1000.61
2019-06-20T00:13:16.304Z,1000.65
2019-06-20T00:14:15.814Z,1000.56
2019-06-20T00:15:15.375Z,1000.52
2019-06-20T00:16:14.935Z,1000.51
2019-06-20T00:17:14.527Z,1000.45
2019-06-20T00:18:14.088Z,1000.30
2019-06-20T00:19:13.683Z,1000.26
2019-06-20T00:20:13.285Z,1000.15
2019-06-20T00:21:12.853Z,1000.09
2019-06-20T00:22:12.544Z,999.90
2019-06-20T00:23:12.114Z,999.85
2019-06-20T00:24:11.652Z,999.81
2019-06-20T00:25:11.343Z,999.68
2019-06-20T00:26:10.908Z,999.48
2019-06-20T00:27:10.456Z,999.46
2019-06-20T00:28:10.101Z,999.37
2019-06-20T00:29:10.192Z,999.06
2019-06-20T00:30:09.522Z,998.84
2019-06-20T00:31:09.081Z,998.66
2019-06-20T00:32:08.694Z,998.56
2019-06-20T00:33:08.230Z,998.51
2019-06-20T00:34:07.801Z,998.52
2019-06-20T00:35:07.393Z,998.66
2019-06-20T00:36:06.960Z,998.72
2019-06-20T00:37:06.609Z,998.77
2019-06-20T00:38:06.159Z,998.81
2019-06-20T00:39:05.678Z,998.83
2019-06-20T00:40:05.272Z,998.98
2019-06-20T00:41:04.824Z,998.91
2019-06-20T00:42:07.375Z,998.93
2019-06-20T00:43:16.906Z,998.92
2019-06-20T00:44:05.782Z,998.96
2019-06-20T00:45:05.418Z,998.94
2019-06-20T00:46:05.075Z,998.90
2019-06-20T00:47:04.582Z,999.01
2019-06-20T00:48:04.134Z,998.93
2019-06-20T00:49:03.698Z,999.18
2019-06-20T00:50:03.364Z,999.45
2019-06-20T00:51:02.813Z,999.64
2019-06-20T00:52:02.408Z,999.62
2019-06-20T00:53:02.072Z,999.85
2019-06-20T00:54:01.666Z,999.87
2019-06-20T00:55:01.228Z,1000.11
2019-06-20T00:56:00.779Z,1000.21
2019-06-20T00:57:00.410Z,1000.28
2019-06-20T00:58:00.004Z,1000.41
2019-06-20T00:58:59.515Z,1000.35
2019-06-20T00:59:59.073Z,1000.28
2019-06-20T01:00:58.727Z,1000.15
2019-06-20T01:01:58.191Z,1000.11
2019-06-20T01:02:57.775Z,1000.13
2019-06-20T01:03:57.406Z,1000.20
2019-06-20T01:04:56.948Z,1000.05
2019-06-20T01:05:56.540Z,1000.03
2019-06-20T01:06:56.113Z,1000.12
2019-06-20T01:07:55.697Z,1000.20
2019-06-20T01:08:55.278Z,1000.15
2019-06-20T01:09:54.848Z,1000.15
2019-06-20T01:10:54.416Z,1000.18
2019-06-20T01:11:54.001Z,1000.08
2019-06-20T01:12:53.517Z,1000.14
2019-06-20T01:13:53.091Z,1000.07
2019-06-20T01:14:52.656Z,1000.24
2019-06-20T01:15:52.244Z,1000.08
2019-06-20T01:16:51.880Z,1000.06
2019-06-20T01:17:51.504Z,1000.16
2019-06-20T01:18:51.050Z,1000.13
2019-06-20T01:19:50.605Z,1000.13
2019-06-20T01:20:50.169Z,1000.20
2019-06-20T01:21:51.531Z,1000.19
2019-06-20T01:22:50.530Z,1000.12
2019-06-20T01:23:50.059Z,1000.09
2019-06-20T01:24:49.698Z,1000.13
2019-06-20T01:25:49.280Z,1000.10
2019-06-20T01:26:48.876Z,1000.13
2019-06-20T01:27:48.430Z,1000.16
2019-06-20T01:28:48.022Z,1000.23
2019-06-20T01:29:47.579Z,1000.17
2019-06-20T01:30:47.177Z,1000.19
2019-06-20T01:31:46.783Z,1000.11
2019-06-20T01:32:46.438Z,1000.17
2019-06-20T01:33:46.075Z,1000.11
2019-06-20T01:34:45.609Z,1000.10
2019-06-20T01:35:45.169Z,1000.15
2019-06-20T01:36:46.548Z,1000.11
2019-06-20T01:37:45.561Z,1000.10
2019-06-20T01:38:45.128Z,1000.16
2019-06-20T01:39:44.694Z,1000.16
2019-06-20T01:40:44.225Z,1000.15
2019-06-20T01:41:43.833Z,1000.18
2019-06-20T01:42:43.405Z,1000.20
2019-06-20T01:43:50.664Z,1000.24
2019-06-20T01:44:42.505Z,1000.19
2019-06-20T01:45:42.077Z,1000.26
2019-06-20T01:46:41.669Z,1000.24
2019-06-20T01:47:41.222Z,1000.24
2019-06-20T01:48:40.782Z,1000.16
2019-06-20T01:49:40.307Z,1000.20
2019-06-20T01:50:39.901Z,1000.29
2019-06-20T01:51:39.458Z,1000.30
2019-06-20T01:52:39.011Z,1000.34
2019-06-20T01:53:38.681Z,1000.27
2019-06-20T01:54:38.268Z,1000.37
2019-06-20T01:55:37.861Z,1000.41
2019-06-20T01:56:37.523Z,1000.35
2019-06-20T01:57:37.076Z,1000.41
2019-06-20T01:58:36.625Z,1000.33
2019-06-20T01:59:36.343Z,1000.34
2019-06-20T02:00:35.861Z,1000.34
2019-06-20T02:01:35.467Z,1000.37
2019-06-20T02:02:35.058Z,1000.35
2019-06-20T02:03:34.600Z,1000.25
2019-06-20T02:04:34.216Z,1000.37
2019-06-20T02:05:33.784Z,1000.37
2019-06-20T02:06:33.340Z,1000.36
2019-06-20T02:07:32.955Z,1000.40
2019-06-20T02:08:32.540Z,1000.38
2019-06-20T02:09:32.064Z,1000.47
2019-06-20T02:10:31.731Z,1000.43
2019-06-20T02:11:31.278Z,1000.39
2019-06-20T02:12:30.840Z,1000.32
2019-06-20T02:13:30.446Z,1000.38
2019-06-20T02:14:29.962Z,1000.43
2019-06-20T02:15:29.529Z,1000.38
2019-06-20T02:16:29.096Z,1000.38
2019-06-20T02:17:28.706Z,1000.38
2019-06-20T02:18:28.360Z,1000.31
2019-06-20T02:19:27.918Z,1000.38
2019-06-20T02:20:27.526Z,1000.31
2019-06-20T02:21:27.168Z,1000.38
2019-06-20T02:22:26.809Z,1000.40
2019-06-20T02:23:26.398Z,1000.36
2019-06-20T02:24:25.965Z,1000.43
2019-06-20T02:25:25.535Z,1000.33
2019-06-20T02:26:25.155Z,1000.33
2019-06-20T02:27:24.678Z,1000.28
2019-06-20T02:28:24.309Z,1000.32
2019-06-20T02:29:23.827Z,1000.35
2019-06-20T02:30:23.454Z,1000.33
2019-06-20T02:31:22.983Z,1000.40
2019-06-20T02:32:22.551Z,1000.33
2019-06-20T02:33:22.160Z,1000.35
2019-06-20T02:34:21.803Z,1000.45
2019-06-20T02:35:21.435Z,1000.44
2019-06-20T02:36:20.995Z,1000.51
2019-06-20T02:37:20.535Z,1000.44
2019-06-20T02:38:20.186Z,1000.42
2019-06-20T02:40:19.330Z,1000.41
2019-06-20T02:41:18.908Z,1000.50
2019-06-20T02:42:18.484Z,1000.50
2019-06-20T02:43:18.040Z,1000.60
2019-06-20T02:44:29.816Z,1000.50
2019-06-20T02:45:17.239Z,1000.56
2019-06-20T02:46:16.814Z,1000.59
2019-06-20T02:47:16.524Z,1000.67
2019-06-20T02:48:16.087Z,1000.61
2019-06-20T02:49:15.665Z,1000.68
2019-06-20T02:50:15.234Z,1000.67
2019-06-20T02:51:14.848Z,1000.73
2019-06-20T02:52:14.422Z,1000.66
2019-06-20T02:53:13.983Z,1000.71
2019-06-20T02:54:13.559Z,1000.68
2019-06-20T02:55:13.087Z,1000.72
2019-06-20T02:56:12.733Z,1000.67
2019-06-20T02:57:12.263Z,1000.70
2019-06-20T02:58:11.798Z,1000.73
2019-06-20T02:59:11.510Z,1000.68
2019-06-20T03:00:11.056Z,1000.75
2019-06-20T03:01:13.997Z,1000.76
2019-06-20T03:02:12.661Z,1000.73
2019-06-20T03:03:12.277Z,1000.79
2019-06-20T03:04:11.897Z,1000.78
2019-06-20T03:05:11.424Z,1000.82
2019-06-20T03:06:11.024Z,1000.77
2019-06-20T03:07:10.625Z,1000.78
2019-06-20T03:08:10.140Z,1000.90
2019-06-20T03:09:09.747Z,1001.00
2019-06-20T03:10:09.318Z,1000.92
2019-06-20T03:11:10.815Z,1001.00
2019-06-20T03:12:09.807Z,1001.01
2019-06-20T03:13:09.652Z,1001.05
2019-06-20T03:14:09.011Z,1001.09
2019-06-20T03:15:08.676Z,1001.04
2019-06-20T03:16:08.153Z,1001.05
2019-06-20T03:17:07.882Z,1001.05
2019-06-20T03:18:07.401Z,1001.06
2019-06-20T03:19:06.955Z,1000.99
2019-06-20T03:20:06.582Z,1001.09
2019-06-20T03:21:06.084Z,1001.11
2019-06-20T03:22:05.774Z,1001.07
2019-06-20T03:23:05.394Z,1001.02
2019-06-20T03:24:04.935Z,1001.08
2019-06-20T03:25:04.562Z,1001.11
2019-06-20T03:26:04.063Z,1001.15
2019-06-20T03:27:03.568Z,1001.12
2019-06-20T03:28:03.188Z,1001.14
2019-06-20T03:29:02.718Z,1001.14
2019-06-20T03:30:02.463Z,1001.18
2019-06-20T03:31:01.966Z,1001.13
2019-06-20T03:32:01.569Z,1001.23
2019-06-20T03:33:01.384Z,1001.15
2019-06-20T03:34:00.860Z,1001.27
2019-06-20T03:35:00.456Z,1001.28
2019-06-20T03:36:00.023Z,1001.30
2019-06-20T03:36:59.543Z,1001.30
2019-06-20T03:37:59.136Z,1001.33
2019-06-20T03:38:58.674Z,1001.23
2019-06-20T03:39:58.251Z,1001.25
2019-06-20T03:40:57.866Z,1001.24
2019-06-20T03:41:57.438Z,1001.20
2019-06-20T03:42:57.017Z,1001.30
2019-06-20T03:43:59.001Z,1001.28
2019-06-20T03:45:02.219Z,1001.27
2019-06-20T03:45:55.725Z,1001.23
2019-06-20T03:46:55.326Z,1001.24
2019-06-20T03:47:54.869Z,1001.26
2019-06-20T03:48:54.398Z,1001.22
2019-06-20T03:49:54.079Z,1001.22
2019-06-20T03:50:53.711Z,1001.28
2019-06-20T03:51:53.311Z,1001.24
2019-06-20T03:52:52.875Z,1001.33
2019-06-20T03:53:52.481Z,1001.28
2019-06-20T03:54:52.079Z,1001.34
2019-06-20T03:55:51.581Z,1001.25
2019-06-20T03:56:51.161Z,1001.23
2019-06-20T03:57:50.566Z,1001.28
2019-06-20T03:58:50.277Z,1001.28
2019-06-20T03:59:49.838Z,1001.20
2019-06-20T04:00:49.518Z,1001.19
2019-06-20T04:01:49.349Z,1001.22
2019-06-20T04:02:48.671Z,1001.19
2019-06-20T04:03:48.261Z,1001.22
2019-06-20T04:04:47.864Z,1001.34
2019-06-20T04:05:47.432Z,1001.26
2019-06-20T04:06:46.887Z,1001.35
2019-06-20T04:07:46.379Z,1001.36
2019-06-20T04:08:46.061Z,1001.33
2019-06-20T04:09:45.608Z,1001.38
2019-06-20T04:10:45.307Z,1001.35
2019-06-20T04:11:44.883Z,1001.39
2019-06-20T04:12:44.466Z,1001.34
2019-06-20T04:13:44.039Z,1001.29
2019-06-20T04:14:43.575Z,1001.30
2019-06-20T04:15:43.153Z,1001.34
2019-06-20T04:16:42.767Z,1001.36
2019-06-20T04:17:42.347Z,1001.42
2019-06-20T04:18:41.991Z,1001.35
2019-06-20T04:19:41.478Z,1001.39
2019-06-20T04:20:41.056Z,1001.37
2019-06-20T04:21:40.668Z,1001.36
2019-06-20T04:22:40.169Z,1001.42
2019-06-20T04:23:39.797Z,1001.40
2019-06-20T04:24:39.387Z,1001.45
2019-06-20T04:25:39.015Z,1001.47
2019-06-20T04:26:38.667Z,1001.43
2019-06-20T04:27:38.157Z,1001.42
2019-06-20T04:28:37.771Z,1001.42
2019-06-20T04:29:37.342Z,1001.42
2019-06-20T04:30:36.906Z,1001.41
2019-06-20T04:31:36.465Z,1001.42
2019-06-20T04:32:36.063Z,1001.42
2019-06-20T04:33:35.625Z,1001.40
2019-06-20T04:34:35.202Z,1001.36
2019-06-20T04:35:34.848Z,1001.46
2019-06-20T04:36:34.408Z,1001.46
2019-06-20T04:37:34.102Z,1001.50
2019-06-20T04:38:33.605Z,1001.49
2019-06-20T04:39:33.188Z,1001.43
2019-06-20T04:40:32.719Z,1001.43
2019-06-20T04:41:32.290Z,1001.46
2019-06-20T04:42:31.828Z,1001.50
2019-06-20T04:43:31.385Z,1001.54
2019-06-20T04:44:31.034Z,1001.44
2019-06-20T04:45:35.042Z,1001.50
2019-06-20T04:46:30.231Z,1001.46
2019-06-20T04:47:29.775Z,1001.44
2019-06-20T04:48:29.368Z,1001.47
2019-06-20T04:49:29.002Z,1001.48
2019-06-20T04:50:28.637Z,1001.52
2019-06-20T04:51:28.092Z,1001.52
2019-06-20T04:52:27.662Z,1001.50
2019-06-20T04:53:27.275Z,1001.49
2019-06-20T04:54:26.887Z,1001.37
2019-06-20T04:55:26.379Z,1001.48
2019-06-20T04:56:26.021Z,1001.53
2019-06-20T04:57:25.523Z,1001.51
2019-06-20T04:58:25.073Z,1001.50
2019-06-20T04:59:24.700Z,1001.51
2019-06-20T05:00:24.273Z,1001.50
2019-06-20T05:01:23.850Z,1001.47
2019-06-20T05:02:23.430Z,1001.55
2019-06-20T05:03:23.072Z,1001.50
2019-06-20T05:04:22.605Z,1001.50
2019-06-20T05:05:22.200Z,1001.43
2019-06-20T05:06:21.746Z,1001.50
2019-06-20T05:07:21.295Z,1001.50
2019-06-20T05:08:20.679Z,1001.55
2019-06-20T05:09:20.391Z,1001.57
2019-06-20T05:10:19.999Z,1001.50
2019-06-20T05:11:19.537Z,1001.53
2019-06-20T05:12:19.077Z,1001.53
2019-06-20T05:13:18.726Z,1001.44
2019-06-20T05:14:18.349Z,1001.50
2019-06-20T05:15:17.902Z,1001.53
2019-06-20T05:16:19.293Z,1001.50
2019-06-20T05:17:18.312Z,1001.56
2019-06-20T05:18:17.853Z,1001.50
2019-06-20T05:19:17.455Z,1001.56
2019-06-20T05:20:17.008Z,1001.50
2019-06-20T05:21:16.693Z,1001.48
2019-06-20T05:22:16.175Z,1001.53
2019-06-20T05:23:15.775Z,1001.51
2019-06-20T05:24:15.318Z,1001.49
2019-06-20T05:25:14.970Z,1001.51
2019-06-20T05:26:14.547Z,1001.49
2019-06-20T05:27:14.307Z,1001.50
2019-06-20T05:28:13.885Z,1001.50
2019-06-20T05:29:13.417Z,1001.54
2019-06-20T05:30:13.015Z,1001.50
2019-06-20T05:31:12.576Z,1001.45
2019-06-20T05:32:12.144Z,1001.53
2019-06-20T05:33:11.722Z,1001.41
2019-06-20T05:34:11.308Z,1001.43
2019-06-20T05:35:10.843Z,1001.43
2019-06-20T05:36:10.425Z,1001.48
2019-06-20T05:37:10.093Z,1001.43
2019-06-20T05:38:09.672Z,1001.52
2019-06-20T05:39:09.323Z,1001.50
2019-06-20T05:40:08.839Z,1001.52
2019-06-20T05:41:08.400Z,1001.51
2019-06-20T05:42:08.008Z,1001.56
2019-06-20T05:43:07.581Z,1001.58
2019-06-20T05:44:07.214Z,1001.59
2019-06-20T05:45:06.730Z,1001.57
2019-06-20T05:46:10.760Z,1001.63
2019-06-20T05:47:12.507Z,1001.56
2019-06-20T05:48:05.614Z,1001.54
2019-06-20T05:49:05.190Z,1001.63
2019-06-20T05:50:06.560Z,1001.56
2019-06-20T05:51:06.316Z,1001.63
2019-06-20T05:52:05.005Z,1001.63
2019-06-20T05:53:04.484Z,1001.64
2019-06-20T05:54:04.482Z,1001.56
2019-06-20T05:55:03.560Z,1001.57
2019-06-20T05:56:03.040Z,1001.62
2019-06-20T05:57:03.751Z,1001.60
2019-06-20T05:58:02.269Z,1001.61
2019-06-20T05:59:01.849Z,1001.58
2019-06-20T06:00:01.551Z,1001.56
2019-06-20T06:01:01.069Z,1001.60
2019-06-20T06:02:00.672Z,1001.61
2019-06-20T06:03:00.291Z,1001.68
2019-06-20T06:03:59.902Z,1001.66
2019-06-20T06:04:59.387Z,1001.64
2019-06-20T06:05:58.944Z,1001.59
2019-06-20T06:06:58.537Z,1001.65
2019-06-20T06:07:58.499Z,1001.66
2019-06-20T06:08:57.707Z,1001.62
2019-06-20T06:09:57.262Z,1001.63
2019-06-20T06:10:56.941Z,1001.61
2019-06-20T06:11:56.504Z,1001.60
2019-06-20T06:12:56.070Z,1001.65
2019-06-20T06:13:56.286Z,1001.62
2019-06-20T06:14:55.285Z,1001.55
2019-06-20T06:15:54.901Z,1001.57
2019-06-20T06:16:54.426Z,1001.60
2019-06-20T06:17:54.029Z,1001.64
2019-06-20T06:18:53.419Z,1001.61
2019-06-20T06:19:53.059Z,1001.55
2019-06-20T06:20:52.629Z,1001.52
2019-06-20T06:21:52.175Z,1001.51
2019-06-20T06:22:51.754Z,1001.56
2019-06-20T06:23:51.293Z,1001.59
2019-06-20T06:24:50.875Z,1001.55
2019-06-20T06:25:50.426Z,1001.59
2019-06-20T06:26:49.999Z,1001.62
2019-06-20T06:27:49.658Z,1001.57
2019-06-20T06:28:49.073Z,1001.62
2019-06-20T06:29:48.682Z,1001.55
2019-06-20T06:30:48.284Z,1001.67
2019-06-20T06:31:47.597Z,1001.62
2019-06-20T06:32:47.158Z,1001.68
2019-06-20T06:33:46.783Z,1001.62
2019-06-20T06:34:46.369Z,1001.68
2019-06-20T06:35:45.977Z,1001.66
2019-06-20T06:36:45.637Z,1001.68
2019-06-20T06:37:45.104Z,1001.70
2019-06-20T06:38:44.725Z,1001.74
2019-06-20T06:39:44.114Z,1001.78
2019-06-20T06:40:43.636Z,1001.80
2019-06-20T06:41:43.318Z,1001.78
2019-06-20T06:42:42.893Z,1001.77
2019-06-20T06:43:42.378Z,1001.81
2019-06-20T06:44:41.799Z,1001.78
2019-06-20T06:45:41.290Z,1001.85
2019-06-20T06:46:47.157Z,1001.75
2019-06-20T06:47:40.312Z,1001.90
2019-06-20T06:48:39.814Z,1001.89
2019-06-20T06:49:39.760Z,1001.82
2019-06-20T06:50:38.857Z,1001.98
2019-06-20T06:51:38.419Z,1001.93
2019-06-20T06:52:37.930Z,1001.84
2019-06-20T06:53:37.424Z,1001.81
2019-06-20T06:54:36.913Z,1001.88
2019-06-20T06:55:36.483Z,1001.90
2019-06-20T06:56:35.988Z,1001.81
2019-06-20T06:57:35.467Z,1001.85
2019-06-20T06:58:34.969Z,1001.84
2019-06-20T06:59:34.658Z,1001.84
2019-06-20T07:00:34.176Z,1001.78
2019-06-20T07:01:33.979Z,1001.74
2019-06-20T07:02:33.554Z,1001.83
2019-06-20T07:03:33.090Z,1001.81
2019-06-20T07:04:32.449Z,1001.80
2019-06-20T07:05:32.753Z,1001.79
2019-06-20T07:06:32.213Z,1001.95
2019-06-20T07:07:32.335Z,1001.78
2019-06-20T07:08:31.658Z,1001.86
2019-06-20T07:09:31.091Z,1001.91
2019-06-20T07:10:30.737Z,1001.84
2019-06-20T07:11:30.156Z,1001.85
2019-06-20T07:12:29.857Z,1001.77
2019-06-20T07:13:29.494Z,1001.92
2019-06-20T07:14:29.092Z,1001.87
2019-06-20T07:15:28.717Z,1001.88
2019-06-20T07:16:28.248Z,1001.87
2019-06-20T07:17:27.846Z,1001.79
2019-06-20T07:18:27.501Z,1001.83
2019-06-20T07:19:26.845Z,1001.80
2019-06-20T07:20:26.376Z,1001.79
2019-06-20T07:21:25.932Z,1001.75
2019-06-20T07:22:25.568Z,1001.77
2019-06-20T07:23:25.175Z,1001.79
2019-06-20T07:24:24.790Z,1001.83
2019-06-20T07:25:24.206Z,1001.78
2019-06-20T07:26:23.682Z,1001.78
2019-06-20T07:27:23.403Z,1001.77
2019-06-20T07:28:22.782Z,1001.77
2019-06-20T07:29:22.501Z,1001.88
2019-06-20T07:30:22.066Z,1001.84
2019-06-20T07:31:21.384Z,1001.83
2019-06-20T07:32:21.085Z,1001.84
2019-06-20T07:33:20.736Z,1001.86
2019-06-20T07:34:20.254Z,1001.83
2019-06-20T07:35:19.852Z,1001.93
2019-06-20T07:36:19.311Z,1001.89
2019-06-20T07:37:19.042Z,1001.89
2019-06-20T07:38:18.533Z,1001.94
2019-06-20T07:39:18.093Z,1001.94
2019-06-20T07:40:17.456Z,1001.94
2019-06-20T07:41:17.105Z,1001.99
2019-06-20T07:42:16.722Z,1002.06
2019-06-20T07:43:16.130Z,1001.98
2019-06-20T07:44:15.605Z,1002.04
2019-06-20T07:45:15.245Z,1001.91
2019-06-20T07:46:14.812Z,1002.01
2019-06-20T07:47:17.892Z,1002.00
2019-06-20T07:48:14.058Z,1002.12
2019-06-20T07:49:13.692Z,1002.06
2019-06-20T07:50:13.250Z,1002.13
2019-06-20T07:51:12.812Z,1002.13
2019-06-20T07:52:12.404Z,1002.05
2019-06-20T07:53:11.970Z,1002.06
2019-06-20T07:54:11.497Z,1002.05
2019-06-20T07:55:11.097Z,1002.06
2019-06-20T07:56:10.729Z,1002.03
2019-06-20T07:57:10.300Z,1001.99
2019-06-20T07:58:09.923Z,1001.96
2019-06-20T07:59:09.459Z,1001.99
2019-06-20T08:00:09.030Z,1001.95
2019-06-20T08:01:08.660Z,1001.94
2019-06-20T08:02:08.229Z,1002.03
2019-06-20T08:03:07.765Z,1001.96
2019-06-20T08:04:07.376Z,1002.02
2019-06-20T08:05:06.927Z,1001.97
2019-06-20T08:06:06.551Z,1001.99
2019-06-20T08:07:06.055Z,1001.95
2019-06-20T08:08:05.616Z,1001.91
2019-06-20T08:09:05.183Z,1001.90
2019-06-20T08:10:04.896Z,1001.88
2019-06-20T08:11:04.318Z,1001.94
2019-06-20T08:12:03.904Z,1001.93
2019-06-20T08:13:03.478Z,1001.94
2019-06-20T08:14:03.054Z,1001.94
2019-06-20T08:15:14.456Z,1001.96
2019-06-20T08:16:03.904Z,1001.96
2019-06-20T08:17:01.887Z,1002.03
2019-06-20T08:18:01.503Z,1001.97
2019-06-20T08:19:01.083Z,1001.98
2019-06-20T08:20:00.652Z,1001.99
2019-06-20T08:21:00.148Z,1001.90
2019-06-20T08:21:59.713Z,1002.00
2019-06-20T08:22:59.262Z,1001.96
2019-06-20T08:23:58.801Z,1001.99
2019-06-20T08:24:59.076Z,1002.00
2019-06-20T08:25:59.240Z,1001.98
2019-06-20T08:26:58.744Z,1001.98
2019-06-20T08:27:57.855Z,1001.99
2019-06-20T08:29:10.298Z,1001.97
2019-06-20T08:29:56.581Z,1001.96
2019-06-20T08:30:56.103Z,1001.90
2019-06-20T08:31:55.960Z,1001.93
2019-06-20T08:32:57.441Z,1001.94
2019-06-20T08:33:54.101Z,1001.99
2019-06-20T08:34:53.905Z,1001.87
2019-06-20T08:35:53.261Z,1001.91
2019-06-20T08:36:52.699Z,1001.96
2019-06-20T08:37:52.215Z,1001.95
2019-06-20T08:38:51.738Z,1001.85
2019-06-20T08:39:51.255Z,1001.90
2019-06-20T08:40:50.990Z,1001.88
2019-06-20T08:41:50.402Z,1001.85
2019-06-20T08:42:49.931Z,1001.86
2019-06-20T08:43:49.408Z,1001.82
2019-06-20T08:44:48.986Z,1001.89
2019-06-20T08:45:48.494Z,1001.85
2019-06-20T08:46:47.997Z,1001.95
2019-06-20T08:47:47.541Z,1001.81
2019-06-20T08:48:47.039Z,1001.82
2019-06-20T08:49:46.580Z,1001.85
2019-06-20T08:50:46.065Z,1001.81
2019-06-20T08:51:45.620Z,1001.87
2019-06-20T08:52:45.249Z,1001.89
2019-06-20T08:53:44.672Z,1001.84
2019-06-20T08:54:44.129Z,1001.90
2019-06-20T08:55:43.643Z,1001.84
2019-06-20T08:56:46.089Z,1001.93
2019-06-20T08:57:44.753Z,1001.81
2019-06-20T08:58:44.240Z,1001.91
2019-06-20T08:59:43.793Z,1001.98
2019-06-20T09:00:43.492Z,1001.93
2019-06-20T09:01:42.945Z,1001.95
2019-06-20T09:02:42.523Z,1001.90
2019-06-20T09:03:42.110Z,1001.97
2019-06-20T09:04:41.740Z,1001.85
2019-06-20T09:05:41.385Z,1001.90
2019-06-20T09:06:40.891Z,1001.87
2019-06-20T09:07:41.825Z,1001.87
2019-06-20T09:08:40.024Z,1001.99
2019-06-20T09:09:39.748Z,1001.88
2019-06-20T09:10:39.209Z,1001.85
2019-06-20T09:11:38.815Z,1001.80
2019-06-20T09:12:38.300Z,1001.86
2019-06-20T09:13:40.494Z,1001.84
2019-06-20T09:14:37.408Z,1001.75
2019-06-20T09:15:36.872Z,1001.79
2019-06-20T09:16:36.529Z,1001.74
2019-06-20T09:17:36.156Z,1001.81
2019-06-20T09:18:35.692Z,1001.80
2019-06-20T09:19:35.312Z,1001.78
2019-06-20T09:20:34.838Z,1001.82
2019-06-20T09:21:34.452Z,1001.79
2019-06-20T09:22:34.052Z,1001.72
2019-06-20T09:23:35.695Z,1001.76
2019-06-20T09:24:33.106Z,1001.81
2019-06-20T09:25:35.626Z,1001.81
2019-06-20T09:26:34.238Z,1001.80
2019-06-20T09:27:33.977Z,1001.79
2019-06-20T09:28:33.538Z,1001.77
2019-06-20T09:29:41.805Z,1001.69
2019-06-20T09:30:32.644Z,1001.71
2019-06-20T09:31:32.244Z,1001.76
2019-06-20T09:32:31.808Z,1001.80
2019-06-20T09:33:31.501Z,1001.75
2019-06-20T09:34:31.040Z,1001.83
2019-06-20T09:35:30.590Z,1001.80
2019-06-20T09:36:30.119Z,1001.81
2019-06-20T09:37:29.775Z,1001.75
2019-06-20T09:38:29.276Z,1001.81
2019-06-20T09:39:28.818Z,1001.72
2019-06-20T09:40:28.446Z,1001.81
2019-06-20T09:41:28.024Z,1001.86
2019-06-20T09:42:27.655Z,1001.81
2019-06-20T09:43:28.085Z,1001.82
2019-06-20T09:44:26.735Z,1001.77
2019-06-20T09:45:26.322Z,1001.81
2019-06-20T09:46:25.868Z,1001.85
2019-06-20T09:47:25.525Z,1001.88
2019-06-20T09:48:24.827Z,1001.89
2019-06-20T09:49:24.508Z,1001.83
2019-06-20T09:50:24.119Z,1001.84
2019-06-20T09:51:23.697Z,1001.75
2019-06-20T09:52:23.312Z,1001.76
2019-06-20T09:53:22.960Z,1001.80
2019-06-20T09:54:22.569Z,1001.73
2019-06-20T09:55:22.182Z,1001.78
2019-06-20T09:56:21.789Z,1001.85
2019-06-20T09:57:21.421Z,1001.87
2019-06-20T09:58:21.078Z,1001.86
2019-06-20T09:59:27.527Z,1001.80
2019-06-20T10:00:20.266Z,1001.89
2019-06-20T10:01:19.958Z,1001.92
2019-06-20T10:02:19.573Z,1001.90
2019-06-20T10:03:19.191Z,1001.89
2019-06-20T10:04:21.531Z,1001.95
2019-06-20T10:05:18.408Z,1001.99
2019-06-20T10:06:17.970Z,1001.93
2019-06-20T10:07:17.603Z,1001.96
2019-06-20T10:08:17.193Z,1001.93
2019-06-20T10:09:16.817Z,1001.91
2019-06-20T10:10:16.448Z,1001.99
2019-06-20T10:11:15.947Z,1002.07
2019-06-20T10:12:15.531Z,1002.06
2019-06-20T10:13:15.167Z,1002.02
2019-06-20T10:14:14.799Z,1002.01
2019-06-20T10:15:14.090Z,1002.00
2019-06-20T10:16:13.991Z,1001.93
2019-06-20T10:17:13.491Z,1002.03
2019-06-20T10:18:12.897Z,1002.06
2019-06-20T10:19:13.445Z,1001.92
2019-06-20T10:20:11.944Z,1001.95
2019-06-20T10:21:14.366Z,1001.92
2019-06-20T10:22:13.006Z,1001.96
2019-06-20T10:23:12.690Z,1001.79
2019-06-20T10:24:14.996Z,1001.85
2019-06-20T10:25:13.694Z,1001.90
2019-06-20T10:26:13.583Z,1001.80
2019-06-20T10:27:12.923Z,1001.85
2019-06-20T10:28:12.390Z,1001.78
2019-06-20T10:29:11.855Z,1001.78
2019-06-20T10:30:14.618Z,1001.76
2019-06-20T10:31:10.899Z,1001.79
2019-06-20T10:32:10.644Z,1001.81
2019-06-20T10:33:10.019Z,1001.73
2019-06-20T10:34:09.513Z,1001.78
2019-06-20T10:35:08.964Z,1001.83
2019-06-20T10:36:08.674Z,1001.88
2019-06-20T10:37:08.340Z,1001.89
2019-06-20T10:38:07.933Z,1001.86
2019-06-20T10:39:07.514Z,1001.98
2019-06-20T10:40:07.022Z,1002.00
2019-06-20T10:41:06.451Z,1001.98
2019-06-20T10:42:06.194Z,1001.99
2019-06-20T10:43:05.816Z,1001.96
2019-06-20T10:44:08.281Z,1001.96
2019-06-20T10:45:07.510Z,1002.05
2019-06-20T10:46:06.892Z,1002.11
2019-06-20T10:47:06.504Z,1002.14
2019-06-20T10:48:06.065Z,1002.27
2019-06-20T10:49:05.618Z,1002.27
2019-06-20T10:50:05.296Z,1002.23
2019-06-20T10:51:04.779Z,1002.31
2019-06-20T10:52:04.190Z,1002.37
2019-06-20T10:53:03.835Z,1002.33
2019-06-20T10:54:03.379Z,1002.33
2019-06-20T10:55:03.051Z,1002.35
2019-06-20T10:56:02.560Z,1002.36
2019-06-20T10:57:02.104Z,1002.19
2019-06-20T10:58:01.697Z,1002.30
2019-06-20T10:59:01.310Z,1002.31
2019-06-20T11:00:00.974Z,1002.26
2019-06-20T11:01:00.535Z,1002.26
2019-06-20T11:02:00.208Z,1002.28
2019-06-20T11:02:59.803Z,1002.34
2019-06-20T11:03:59.430Z,1002.25
2019-06-20T11:04:58.972Z,1002.33
2019-06-20T11:05:58.808Z,1002.31
2019-06-20T11:06:58.283Z,1002.25
2019-06-20T11:07:57.693Z,1002.24
2019-06-20T11:08:57.343Z,1002.26
2019-06-20T11:09:57.041Z,1002.22
2019-06-20T11:10:56.710Z,1002.25
2019-06-20T11:11:56.312Z,1002.13
2019-06-20T11:12:56.475Z,1002.21
2019-06-20T11:13:55.261Z,1002.14
2019-06-20T11:14:55.053Z,1002.19
2019-06-20T11:15:54.627Z,1002.09
2019-06-20T11:16:54.233Z,1002.21
2019-06-20T11:17:56.367Z,1002.12
2019-06-20T11:18:53.413Z,1002.09
2019-06-20T11:19:53.127Z,1002.12
2019-06-20T11:20:52.711Z,1002.12
2019-06-20T11:21:52.113Z,1002.10
2019-06-20T11:22:51.627Z,1002.14
2019-06-20T11:23:51.173Z,1002.10
2019-06-20T11:24:50.922Z,1002.04
2019-06-20T11:25:50.302Z,1002.13
2019-06-20T11:26:50.134Z,1002.14
2019-06-20T11:27:49.689Z,1002.12
2019-06-20T11:28:49.031Z,1002.08
2019-06-20T11:29:48.722Z,1002.05
2019-06-20T11:30:59.582Z,1002.08
2019-06-20T11:31:48.261Z,1002.10
2019-06-20T11:32:48.763Z,1002.05
2019-06-20T11:33:46.789Z,1002.11
2019-06-20T11:34:47.566Z,1002.04
2019-06-20T11:35:46.058Z,1002.10
2019-06-20T11:36:46.760Z,1001.99
2019-06-20T11:37:45.246Z,1002.04
2019-06-20T11:38:44.729Z,1002.06
2019-06-20T11:39:44.322Z,1002.04
2019-06-20T11:40:44.009Z,1001.98
2019-06-20T11:41:43.712Z,1002.01
2019-06-20T11:42:44.595Z,1001.94
2019-06-20T11:43:42.739Z,1001.92
2019-06-20T11:44:43.094Z,1001.91
2019-06-20T11:45:43.064Z,1001.90
2019-06-20T11:46:42.620Z,1001.90
2019-06-20T11:47:42.468Z,1001.97
2019-06-20T11:48:40.741Z,1001.91
2019-06-20T11:49:40.450Z,1001.92
2019-06-20T11:50:40.056Z,1001.88
2019-06-20T11:51:39.856Z,1001.89
2019-06-20T11:52:42.441Z,1001.82
2019-06-20T11:53:38.616Z,1001.87
2019-06-20T11:54:38.291Z,1001.82
2019-06-20T11:55:37.777Z,1001.76
2019-06-20T11:56:37.468Z,1001.70
2019-06-20T11:57:36.860Z,1001.68
2019-06-20T11:58:36.371Z,1001.68
2019-06-20T11:59:35.886Z,1001.64
2019-06-20T12:00:35.424Z,1001.60
2019-06-20T12:01:34.902Z,1001.58
2019-06-20T12:02:34.397Z,1001.57